Time;durP1;ratioP1;P1;durP2;ratioP2;P2;SDS_P1;SDS_P2;PMS_P1;PMS_P2;Temp;Humidity;BMP_temperature;BMP_pressure;BME280_temperature;BME280_humidity;BME280_pressure;Samples;Min_cycle;Max_cycle;Signal;HPM_P1;HPM_P2
2022/08/25 00:01:36;;;;;;;26.62;13.28;;;;;;;19.05;83.90;97457.39;1631101;87;25819;-75
2022/08/25 00:04:07;;;;;;;24.65;12.73;;;;;;;19.04;83.92;97462.58;1680376;82;26365;-76
2022/08/25 00:06:34;;;;;;;23.67;13.20;;;;;;;18.98;83.75;97464.98;1710585;82;25714;-74
2022/08/25 00:09:00;;;;;;;25.00;12.30;;;;;;;18.95;83.91;97465.54;1710606;83;28090;-75
2022/08/25 00:11:31;;;;;;;31.07;13.08;;;;;;;18.93;83.97;97460.88;1710243;82;25659;-74
2022/08/25 00:14:03;;;;;;;28.32;12.80;;;;;;;18.91;83.99;97461.67;1710582;82;25750;-76
2022/08/25 00:16:31;;;;;;;22.55;12.07;;;;;;;18.89;83.97;97461.11;1710766;82;25734;-76
2022/08/25 00:19:03;;;;;;;23.00;12.33;;;;;;;18.88;83.94;97453.98;1710317;83;26909;-75
2022/08/25 00:21:30;;;;;;;26.80;12.20;;;;;;;18.85;83.83;97457.78;1708466;83;28301;-76
2022/08/25 00:23:58;;;;;;;28.98;13.28;;;;;;;18.80;83.79;97457.22;1710524;82;25769;-76
2022/08/25 00:26:26;;;;;;;25.45;13.20;;;;;;;18.78;83.80;97460.75;1710646;82;25717;-75
2022/08/25 00:28:53;;;;;;;27.70;12.28;;;;;;;18.76;83.82;97461.55;1710531;82;25760;-74
2022/08/25 00:31:24;;;;;;;20.65;11.53;;;;;;;18.75;83.86;97457.71;1732177;81;25851;-75
2022/08/25 00:33:54;;;;;;;20.52;10.90;;;;;;;18.73;83.85;97457.14;1747545;81;28224;-77
2022/08/25 00:36:20;;;;;;;25.72;10.50;;;;;;;18.69;83.88;97452.22;1747451;82;25869;-74
2022/08/25 00:38:48;;;;;;;20.95;10.28;;;;;;;18.72;83.99;97454.16;1747585;81;26014;-74
2022/08/25 00:41:20;;;;;;;21.33;10.78;;;;;;;18.71;83.96;97451.97;1747655;81;25727;-74
2022/08/25 00:43:59;;;;;;;20.05;10.90;;;;;;;18.69;84.05;97447.30;1744197;81;25719;-74
2022/08/25 00:46:31;;;;;;;20.97;11.97;;;;;;;18.69;84.16;97450.86;1747461;81;28271;-75
2022/08/25 00:49:15;;;;;;;22.32;11.57;;;;;;;18.69;84.31;97452.77;1747535;81;25774;-74
2022/08/25 00:52:02;;;;;;;21.75;12.10;;;;;;;18.71;84.43;97445.13;1747310;81;25744;-75
2022/08/25 00:54:37;;;;;;;29.52;12.75;;;;;;;18.71;84.47;97445.13;1747263;81;26766;-75
2022/08/25 00:57:06;;;;;;;24.07;13.53;;;;;;;18.72;84.53;97437.18;1743940;81;25666;-74
2022/08/25 00:59:34;;;;;;;26.15;14.10;;;;;;;18.71;84.53;97441.03;1747429;81;27381;-75
2022/08/25 01:02:03;;;;;;;24.10;13.28;;;;;;;18.72;84.57;97436.39;1718233;81;25677;-74
2022/08/25 01:04:31;;;;;;;32.23;13.93;;;;;;;18.72;84.65;97434.45;1747357;81;25660;-74
2022/08/25 01:06:59;;;;;;;25.48;13.58;;;;;;;18.72;84.73;97439.91;1747540;81;25660;-74
2022/08/25 01:09:30;;;;;;;28.47;15.00;;;;;;;18.73;84.82;97433.36;1747652;82;26284;-74
2022/08/25 01:11:58;;;;;;;25.80;13.55;;;;;;;18.75;84.92;97439.94;1747570;81;27952;-75
2022/08/25 01:14:26;;;;;;;31.87;14.18;;;;;;;18.74;84.94;97433.64;1747452;81;25883;-75
2022/08/25 01:16:54;;;;;;;25.27;14.03;;;;;;;18.76;85.04;97430.11;1747620;81;25703;-76
2022/08/25 01:19:21;;;;;;;28.70;15.45;;;;;;;18.79;85.09;97429.59;1747677;81;25765;-74
2022/08/25 01:21:51;;;;;;;32.67;17.25;;;;;;;18.79;85.13;97421.39;1747765;82;25733;-75
2022/08/25 01:24:41;;;;;;;45.65;18.60;;;;;;;18.82;85.24;97429.07;1747633;81;28099;-73
2022/08/25 01:27:09;;;;;;;28.27;15.28;;;;;;;18.84;85.25;97426.88;1743568;81;25834;-75
2022/08/25 01:29:37;;;;;;;31.55;16.27;;;;;;;18.85;85.34;97425.78;1747237;81;25679;-75
2022/08/25 01:32:08;;;;;;;38.35;16.67;;;;;;;18.86;85.40;97430.17;1747103;81;25745;-76
2022/08/25 01:34:41;;;;;;;38.80;18.07;;;;;;;18.88;85.39;97428.00;1747752;81;25943;-74
2022/08/25 01:37:10;;;;;;;41.65;18.67;;;;;;;18.89;85.43;97425.55;1747462;81;28358;-74
2022/08/25 01:39:36;;;;;;;50.83;21.70;;;;;;;18.90;85.45;97425.84;1747432;81;25764;-76
2022/08/25 01:42:14;;;;;;;50.83;22.15;;;;;;;18.93;85.50;97433.52;1747599;81;25209;-75
2022/08/25 01:44:44;;;;;;;53.52;21.87;;;;;;;18.93;85.58;97437.63;1744544;81;25758;-74
2022/08/25 01:47:13;;;;;;;55.08;22.00;;;;;;;18.94;85.59;97433.80;1747572;81;25695;-76
2022/08/25 01:49:39;;;;;;;53.17;22.87;;;;;;;18.95;85.63;97435.45;1747656;81;27631;-75
2022/08/25 01:52:19;;;;;;;47.38;23.60;;;;;;;18.97;85.68;97430.52;1747426;81;26400;-76
2022/08/25 01:54:46;;;;;;;57.30;23.87;;;;;;;18.97;85.67;97431.05;1743340;81;25798;-74
2022/08/25 01:57:14;;;;;;;58.50;24.92;;;;;;;18.96;85.85;97428.86;1747619;81;25770;-74
2022/08/25 01:59:41;;;;;;;46.05;23.25;;;;;;;18.94;85.94;97424.23;1747618;81;25663;-75
2022/08/25 02:02:08;;;;;;;50.98;25.32;;;;;;;18.92;86.05;97423.66;1747708;81;28000;-74
2022/08/25 02:04:36;;;;;;;48.17;22.67;;;;;;;18.89;86.16;97417.34;1747405;81;26341;-74
2022/08/25 02:07:06;;;;;;;61.63;24.20;;;;;;;18.90;86.24;97420.91;1747605;81;25719;-75
2022/08/25 02:09:35;;;;;;;46.88;24.82;;;;;;;18.88;86.33;97417.06;1747257;81;25687;-76
2022/08/25 02:12:02;;;;;;;51.02;23.57;;;;;;;18.88;86.42;97419.80;1747577;81;25723;-74
2022/08/25 02:14:29;;;;;;;42.70;22.22;;;;;;;18.88;86.44;97415.70;1747560;81;27424;-74
2022/08/25 02:16:56;;;;;;;44.35;21.50;;;;;;;18.89;86.48;97421.45;1747750;81;25731;-75
2022/08/25 02:19:24;;;;;;;38.58;21.50;;;;;;;18.90;86.55;97424.47;1747519;81;25766;-77
2022/08/25 02:21:51;;;;;;;39.30;20.88;;;;;;;18.88;86.57;97425.27;1747613;81;25385;-77
2022/08/25 02:24:18;;;;;;;41.37;21.37;;;;;;;18.88;86.59;97422.53;1747559;81;25863;-74
2022/08/25 02:26:45;;;;;;;38.95;19.45;;;;;;;18.90;86.60;97426.38;1747252;81;28196;-76
2022/08/25 02:29:11;;;;;;;33.05;19.23;;;;;;;18.92;86.69;97422.30;1747513;81;25726;-76
2022/08/25 02:31:39;;;;;;;34.55;18.98;;;;;;;18.91;86.64;97422.02;1747274;81;25735;-74
2022/08/25 02:34:07;;;;;;;41.00;19.45;;;;;;;18.93;86.68;97421.21;1747540;81;25794;-75
2022/08/25 02:36:36;;;;;;;34.25;17.92;;;;;;;18.93;86.71;97416.28;1747569;81;25867;-75
2022/08/25 02:39:05;;;;;;;28.35;17.60;;;;;;;18.92;86.76;97416.83;1747539;81;27389;-74
2022/08/25 02:41:32;;;;;;;22.93;16.80;;;;;;;18.90;86.76;97414.06;1747486;81;25655;-76
2022/08/25 02:44:00;;;;;;;29.23;17.23;;;;;;;18.89;86.74;97414.61;1747560;82;25271;-75
2022/08/25 02:46:27;;;;;;;33.58;17.60;;;;;;;18.91;86.76;97411.61;1747614;81;25712;-75
2022/08/25 02:48:54;;;;;;;28.73;18.67;;;;;;;18.92;86.80;97412.72;1747559;81;25735;-77
2022/08/25 02:51:24;;;;;;;27.85;18.67;;;;;;;18.93;86.79;97407.53;1747515;81;27633;-74
2022/08/25 02:53:50;;;;;;;30.23;17.55;;;;;;;18.93;86.79;97407.53;1747373;81;25679;-75
2022/08/25 02:56:18;;;;;;;27.37;17.42;;;;;;;18.95;86.78;97410.83;1747468;81;25770;-75
2022/08/25 02:58:46;;;;;;;24.40;16.62;;;;;;;18.95;86.85;97407.27;1747295;81;26525;-74
2022/08/25 03:01:14;;;;;;;28.67;16.42;;;;;;;18.95;86.85;97409.47;1747410;82;25731;-76
2022/08/25 03:03:44;;;;;;;25.45;17.75;;;;;;;18.96;86.82;97407.52;1747603;81;27367;-75
2022/08/25 03:06:14;;;;;;;26.23;17.55;;;;;;;18.95;86.87;97408.09;1747560;81;25822;-76
2022/08/25 03:08:42;;;;;;;25.08;16.62;;;;;;;18.95;86.91;97413.57;1747478;81;25805;-76
2022/08/25 03:11:10;;;;;;;26.55;16.75;;;;;;;18.95;86.96;97410.02;1747586;81;26441;-76
2022/08/25 03:13:37;;;;;;;31.00;17.82;;;;;;;18.93;86.92;97404.80;1747610;81;25765;-77
2022/08/25 03:16:06;;;;;;;22.52;16.70;;;;;;;18.93;86.98;97407.53;1747613;81;27368;-76
2022/08/25 03:18:32;;;;;;;23.32;17.25;;;;;;;18.91;86.98;97406.97;1747408;81;25757;-76
2022/08/25 03:20:59;;;;;;;27.90;18.02;;;;;;;18.92;87.06;97408.63;1747658;81;25715;-77
2022/08/25 03:23:25;;;;;;;33.20;19.02;;;;;;;18.93;87.08;97405.34;1747574;81;25709;-76
2022/08/25 03:28:41;;;;;;;23.60;16.37;;;;;;;18.95;87.05;97408.09;1747264;81;28134;-76
2022/08/25 03:31:09;;;;;;;23.45;16.35;;;;;;;18.96;87.11;97409.72;1747444;81;25673;-74
2022/08/25 03:33:37;;;;;;;21.30;15.13;;;;;;;18.96;87.13;97400.14;1747390;81;25697;-76
2022/08/25 03:36:05;;;;;;;21.68;15.32;;;;;;;18.97;87.11;97399.05;1747685;81;25756;-76
2022/08/25 03:38:33;;;;;;;20.68;15.28;;;;;;;18.98;87.03;97404.81;1747834;81;25671;-76
2022/08/25 03:41:00;;;;;;;21.07;15.75;;;;;;;18.98;87.04;97404.81;1747788;81;27364;-77
2022/08/25 03:43:27;;;;;;;26.05;16.50;;;;;;;18.97;87.04;97405.89;1747523;81;25441;-76
2022/08/25 03:45:54;;;;;;;20.92;15.20;;;;;;;18.97;87.07;97400.97;1747787;81;25690;-76
2022/08/25 03:48:20;;;;;;;21.80;15.18;;;;;;;18.97;87.08;97401.80;1747663;81;25672;-76
2022/08/25 03:50:50;;;;;;;20.17;15.20;;;;;;;18.96;87.09;97398.77;1747506;81;25742;-76
2022/08/25 03:53:18;;;;;;;22.07;15.10;;;;;;;18.96;87.10;97394.67;1747634;81;27602;-76
2022/08/25 03:55:44;;;;;;;23.35;16.30;;;;;;;18.97;87.11;97396.87;1747675;81;25737;-75
2022/08/25 03:58:11;;;;;;;20.12;14.98;;;;;;;18.92;87.08;97394.95;1747761;81;26789;-77
2022/08/25 04:00:38;;;;;;;20.97;15.48;;;;;;;18.91;87.19;97402.87;1747694;81;25729;-76
2022/08/25 04:03:04;;;;;;;24.87;14.95;;;;;;;18.91;87.17;97399.30;1747724;81;25755;-76
2022/08/25 04:05:31;;;;;;;22.55;15.05;;;;;;;18.91;87.19;97397.94;1747352;81;27391;-76
2022/08/25 04:07:58;;;;;;;19.35;15.13;;;;;;;18.92;87.21;97399.59;1747592;81;25670;-76
2022/08/25 04:10:24;;;;;;;21.15;14.53;;;;;;;18.90;87.22;97397.12;1747665;81;25674;-75
2022/08/25 04:12:51;;;;;;;21.00;15.05;;;;;;;18.91;87.25;97393.84;1747795;81;26243;-76
2022/08/25 04:15:17;;;;;;;22.82;15.32;;;;;;;18.91;87.23;97398.77;1747811;81;25725;-77
2022/08/25 04:17:44;;;;;;;20.40;14.38;;;;;;;18.91;87.14;97394.66;1747701;81;27404;-76
2022/08/25 04:20:11;;;;;;;19.20;14.90;;;;;;;18.89;87.13;97395.47;1747538;81;25673;-76
2022/08/25 04:22:38;;;;;;;21.50;13.78;;;;;;;18.87;87.11;97389.44;1747685;81;25758;-76
2022/08/25 04:25:06;;;;;;;23.77;14.43;;;;;;;18.87;87.13;97396.27;1747633;81;25678;-76
2022/08/25 04:27:34;;;;;;;21.97;14.55;;;;;;;18.86;87.13;97391.88;1747746;81;25904;-78
2022/08/25 04:30:01;;;;;;;20.52;14.25;;;;;;;18.87;87.13;97394.08;1748047;81;27428;-76
2022/08/25 04:32:27;;;;;;;24.07;14.55;;;;;;;18.87;87.22;97397.64;1747300;81;25236;-76
2022/08/25 04:34:54;;;;;;;23.87;15.95;;;;;;;18.86;87.21;97395.98;1747630;81;25710;-76
2022/08/25 04:37:20;;;;;;;21.25;16.07;;;;;;;18.87;87.27;97389.44;1747694;81;26524;-76
2022/08/25 04:39:47;;;;;;;27.02;15.78;;;;;;;18.87;87.27;97394.90;1747699;81;25806;-77
2022/08/25 04:42:14;;;;;;;25.82;15.38;;;;;;;18.86;87.31;97391.88;1747728;81;27388;-77
2022/08/25 04:44:40;;;;;;;23.45;15.50;;;;;;;18.89;87.41;97395.47;1747547;81;25727;-79
2022/08/25 04:47:07;;;;;;;20.23;15.48;;;;;;;18.89;87.39;97387.26;1747828;81;25719;-77
2022/08/25 04:49:34;;;;;;;19.23;14.68;;;;;;;18.89;87.35;97388.63;1747267;81;26405;-76
2022/08/25 04:52:00;;;;;;;26.85;15.98;;;;;;;18.89;87.41;97384.53;1747675;81;25670;-76
2022/08/25 04:54:27;;;;;;;30.32;17.65;;;;;;;18.90;87.40;97388.09;1747316;81;27591;-77
2022/08/25 04:56:54;;;;;;;27.07;17.00;;;;;;;18.91;87.37;97390.56;1747587;81;25424;-79
2022/08/25 04:59:20;;;;;;;31.27;19.02;;;;;;;18.90;87.34;97388.09;1747594;81;25725;-77
2022/08/25 05:01:47;;;;;;;40.05;19.77;;;;;;;18.88;87.34;97382.88;1747813;81;26220;-79
2022/08/25 05:04:16;;;;;;;34.27;19.17;;;;;;;18.89;87.41;97379.05;1747625;81;25393;-76
2022/08/25 05:06:43;;;;;;;32.03;17.48;;;;;;;18.89;87.39;97377.69;1747396;81;27429;-77
2022/08/25 05:09:10;;;;;;;29.75;16.75;;;;;;;18.91;87.42;97378.25;1745403;81;25655;-76
2022/08/25 05:11:37;;;;;;;27.55;15.50;;;;;;;18.91;87.39;97375.52;1745940;81;25673;-77
2022/08/25 05:14:04;;;;;;;28.38;15.25;;;;;;;18.93;87.41;97378.81;1747266;81;25732;-77
2022/08/25 05:16:31;;;;;;;30.15;14.95;;;;;;;18.94;87.42;97375.00;1747609;81;25719;-76
2022/08/25 05:18:57;;;;;;;30.30;15.58;;;;;;;18.96;87.36;97371.42;1747689;81;27423;-78
2022/08/25 05:21:27;;;;;;;29.30;15.88;;;;;;;18.97;87.33;97379.91;1747486;81;25712;-77
2022/08/25 05:23:57;;;;;;;27.65;16.12;;;;;;;18.97;87.23;97373.08;1747295;81;36065;-77
2022/08/25 05:26:27;;;;;;;29.95;15.72;;;;;;;18.98;87.23;97371.16;1692252;84;25799;-76
2022/08/25 05:28:54;;;;;;;29.23;16.73;;;;;;;18.98;87.22;97371.98;1692331;84;25748;-76
2022/08/25 05:31:24;;;;;;;31.93;15.40;;;;;;;18.98;87.25;97384.30;1692307;84;27671;-77
2022/08/25 05:33:53;;;;;;;27.85;15.13;;;;;;;19.00;87.24;97379.93;1676343;84;25728;-76
2022/08/25 05:36:22;;;;;;;33.40;16.02;;;;;;;18.98;87.15;97377.45;1676175;85;25799;-77
2022/08/25 05:38:49;;;;;;;24.60;14.90;;;;;;;18.95;87.15;97376.64;1676096;85;25744;-78
2022/08/25 05:41:19;;;;;;;34.40;16.93;;;;;;;18.97;87.22;97372.25;1676150;85;25326;-78
2022/08/25 05:43:48;;;;;;;33.95;17.10;;;;;;;18.97;87.23;97366.23;1675944;85;27494;-78
2022/08/25 05:46:18;;;;;;;31.42;17.40;;;;;;;18.99;87.17;97372.27;1675919;85;25889;-78
2022/08/25 05:48:44;;;;;;;30.32;17.98;;;;;;;19.00;87.15;97373.09;1676079;85;25792;-78
2022/08/25 05:51:13;;;;;;;32.67;19.52;;;;;;;19.02;87.21;97366.81;1676102;85;26555;-77
2022/08/25 05:53:43;;;;;;;29.70;18.07;;;;;;;19.03;87.20;97374.77;1676105;85;25868;-76
2022/08/25 05:56:12;;;;;;;27.87;16.95;;;;;;;19.06;87.19;97372.05;1675664;85;27488;-78
2022/08/25 05:58:40;;;;;;;30.92;16.35;;;;;;;19.07;87.14;97373.69;1675911;85;26605;-76
2022/08/25 06:03:52;;;;;;;28.30;17.65;;;;;;;19.07;87.19;97375.06;1675864;85;25749;-77
2022/08/25 06:06:22;;;;;;;25.82;15.90;;;;;;;19.13;87.29;97380.00;1676067;84;25598;-76
2022/08/25 06:08:48;;;;;;;33.42;16.77;;;;;;;19.17;87.24;97377.02;1675899;85;28341;-76
2022/08/25 06:11:15;;;;;;;27.77;17.55;;;;;;;19.21;87.27;97381.67;1675949;85;25782;-76
2022/08/25 06:13:42;;;;;;;34.03;17.07;;;;;;;19.27;87.33;97382.53;1676020;85;25720;-76
2022/08/25 06:16:08;;;;;;;28.42;16.37;;;;;;;19.32;87.39;97378.45;1676035;85;25804;-77
2022/08/25 06:18:35;;;;;;;30.97;16.70;;;;;;;19.36;87.30;97372.16;1676088;85;25708;-77
2022/08/25 06:21:12;;;;;;;32.70;16.93;;;;;;;19.42;87.22;97383.96;1676013;85;27413;-76
2022/08/25 06:23:40;;;;;;;30.43;16.27;;;;;;;19.47;87.15;97379.86;1698666;83;25897;-78
2022/08/25 06:26:12;;;;;;;37.65;18.12;;;;;;;19.49;87.17;97379.63;1710712;83;25708;-76
2022/08/25 06:28:38;;;;;;;32.17;17.40;;;;;;;19.50;87.34;97382.09;1710975;83;25755;-77
2022/08/25 06:31:05;;;;;;;35.95;17.90;;;;;;;19.56;87.65;97383.73;1710944;83;25692;-77
2022/08/25 06:33:32;;;;;;;35.73;18.07;;;;;;;19.62;87.61;97381.86;1749571;80;27359;-78
2022/08/25 06:35:59;;;;;;;38.25;18.55;;;;;;;19.67;87.56;97388.19;1764045;81;25980;-76
2022/08/25 06:38:26;;;;;;;31.02;16.50;;;;;;;19.72;87.52;97386.81;1764321;79;25684;-75
2022/08/25 06:40:55;;;;;;;35.92;18.17;;;;;;;19.77;87.47;97392.31;1764310;80;25697;-77
2022/08/25 06:43:22;;;;;;;39.40;18.05;;;;;;;19.83;87.43;97388.20;1764648;80;25456;-76
2022/08/25 06:45:48;;;;;;;40.98;18.55;;;;;;;19.84;87.30;97392.04;1764436;80;27367;-76
2022/08/25 06:48:15;;;;;;;37.88;17.67;;;;;;;19.86;87.26;97397.25;1764071;80;25630;-77
2022/08/25 06:50:43;;;;;;;39.38;18.45;;;;;;;19.86;87.10;97398.62;1764187;80;25734;-77
2022/08/25 06:53:10;;;;;;;34.13;17.82;;;;;;;19.88;87.16;97406.02;1764098;80;25775;-76
2022/08/25 06:55:36;;;;;;;34.38;16.97;;;;;;;19.87;86.92;97408.48;1764224;81;25877;-77
2022/08/25 06:58:03;;;;;;;30.05;18.12;;;;;;;19.87;86.86;97405.75;1764306;80;27565;-76
2022/08/25 07:00:31;;;;;;;41.60;18.52;;;;;;;19.87;86.86;97407.12;1764015;80;25847;-78
2022/08/25 07:03:00;;;;;;;34.98;18.40;;;;;;;19.90;87.02;97400.56;1764476;80;25675;-76
2022/08/25 07:05:28;;;;;;;34.00;17.02;;;;;;;19.93;87.10;97404.65;1764318;80;25765;-77
2022/08/25 07:07:55;;;;;;;29.40;16.52;;;;;;;19.97;87.00;97403.02;1764393;80;25754;-76
2022/08/25 07:10:21;;;;;;;31.68;16.35;;;;;;;20.00;86.84;97404.68;1764547;80;27370;-77
2022/08/25 07:12:48;;;;;;;32.95;15.53;;;;;;;20.03;86.73;97396.47;1764450;80;25475;-77
2022/08/25 07:15:14;;;;;;;27.90;16.57;;;;;;;20.07;86.66;97394.81;1764585;79;25742;-76
2022/08/25 07:17:41;;;;;;;24.27;16.12;;;;;;;20.14;86.61;97403.61;1764233;81;25740;-75
2022/08/25 07:20:09;;;;;;;33.53;16.37;;;;;;;20.17;86.54;97404.41;1764127;80;25721;-77
2022/08/25 07:22:35;;;;;;;30.48;16.10;;;;;;;20.21;86.55;97400.03;1764517;80;27442;-76
2022/08/25 07:25:02;;;;;;;42.55;16.60;;;;;;;20.25;86.37;97403.89;1764263;80;25401;-77
2022/08/25 07:27:29;;;;;;;30.35;16.45;;;;;;;20.29;86.24;97398.11;1764323;80;25788;-76
2022/08/25 07:29:57;;;;;;;27.02;15.95;;;;;;;20.34;86.04;97394.56;1764652;80;25665;-77
2022/08/25 07:32:23;;;;;;;29.45;15.60;;;;;;;20.31;85.89;97394.56;1762262;80;25841;-77
2022/08/25 07:37:38;;;;;;;28.35;14.95;;;;;;;20.38;85.98;97397.89;1747502;81;25704;-76
2022/08/25 07:40:07;;;;;;;31.68;15.53;;;;;;;20.41;85.87;97398.70;1747804;81;25690;-76
2022/08/25 07:42:34;;;;;;;26.60;14.98;;;;;;;20.43;85.77;97396.51;1747844;81;25688;-76
2022/08/25 07:45:02;;;;;;;25.02;14.70;;;;;;;20.47;85.60;97402.27;1747511;81;25666;-78
2022/08/25 07:47:29;;;;;;;26.42;14.35;;;;;;;20.46;85.40;97398.70;1747855;81;27463;-77
2022/08/25 07:49:56;;;;;;;27.60;14.43;;;;;;;20.48;85.44;97406.12;1747815;81;25450;-77
2022/08/25 07:52:22;;;;;;;23.67;13.90;;;;;;;20.43;85.06;97375.12;1747902;81;25700;-77
2022/08/25 07:54:49;;;;;;;18.20;13.32;;;;;;;20.43;85.06;97375.12;1747836;81;25708;-78
2022/08/25 07:57:16;;;;;;;22.22;12.05;;;;;;;20.57;85.08;97404.18;1747921;81;25675;-78
2022/08/25 07:59:42;;;;;;;21.37;12.35;;;;;;;20.57;85.06;97394.03;1747840;81;27469;-78
2022/08/25 08:02:11;;;;;;;22.17;13.00;;;;;;;20.56;84.98;97392.39;1747890;81;26315;-77
2022/08/25 08:04:38;;;;;;;19.25;12.63;;;;;;;20.61;85.09;97392.39;1747466;81;25710;-76
2022/08/25 08:07:05;;;;;;;25.50;13.00;;;;;;;20.67;85.05;97391.83;1747664;81;25758;-78
2022/08/25 08:09:32;;;;;;;25.40;13.43;;;;;;;20.75;85.05;97397.59;1747793;81;25727;-76
2022/08/25 08:11:59;;;;;;;26.70;13.78;;;;;;;20.88;84.58;97390.72;1747605;82;28271;-76
2022/08/25 08:14:25;;;;;;;22.22;13.50;;;;;;;20.88;84.58;97390.72;1747616;81;25863;-77
2022/08/25 08:16:52;;;;;;;26.00;12.73;;;;;;;20.96;84.69;97392.88;1718039;81;25222;-78
2022/08/25 08:19:21;;;;;;;25.25;13.10;;;;;;;21.05;84.80;97380.78;1747484;81;25825;-77
2022/08/25 08:21:48;;;;;;;22.73;12.85;;;;;;;21.23;84.66;97381.59;1747547;81;25949;-76
2022/08/25 08:24:14;;;;;;;24.27;12.10;;;;;;;;;;1747382;81;27384;-77
2022/08/25 08:26:41;;;;;;;22.45;13.20;;;;;;;21.58;84.38;97378.41;1739309;81;25830;-76
2022/08/25 08:29:07;;;;;;;25.20;13.35;;;;;;;21.47;84.09;97354.30;1747689;81;25849;-77
2022/08/25 08:31:34;;;;;;;19.45;12.10;;;;;;;21.70;84.21;97379.72;1747562;81;25665;-76
2022/08/25 08:34:00;;;;;;;25.08;12.73;;;;;;;21.72;83.83;97377.52;1758228;80;25705;-77
2022/08/25 08:36:27;;;;;;;21.30;11.83;;;;;;;21.77;83.90;97376.65;1763956;80;27644;-76
2022/08/25 08:38:54;;;;;;;23.75;11.55;;;;;;;22.15;84.22;97378.63;1745167;80;25698;-78
2022/08/25 08:44:48;;;;;;;27.48;12.85;;;;;;;22.91;83.34;97374.42;1733531;81;26805;-77
2022/08/25 08:47:40;;;;;;;;;;;;;;;23.53;82.36;97368.49;1736047;81;25731;-77
2022/08/25 08:50:48;;;;;;;18.50;10.43;;;;;;;24.02;81.52;97373.03;1733811;81;27469;-77
2022/08/25 08:53:52;;;;;;;24.75;11.20;;;;;;;24.56;81.12;97370.81;1729420;81;25693;-77
2022/08/25 08:56:33;;;;;;;20.55;10.10;;;;;;;25.11;80.04;97363.50;1730436;81;25881;-77
2022/08/25 08:59:11;;;;;;;22.87;9.95;;;;;;;25.59;79.42;97367.22;1671311;85;26294;-77
2022/08/25 09:01:58;;;;;;;24.15;10.45;;;;;;;25.97;78.31;97367.20;1668643;85;25800;-79
2022/08/25 09:04:30;;;;;;;24.98;9.53;;;;;;;26.16;77.26;97362.34;1667627;85;28305;-78
2022/08/25 09:06:59;;;;;;;21.93;9.45;;;;;;;26.32;75.36;97357.30;1672472;83;25955;-79
2022/08/25 09:09:33;;;;;;;25.10;9.43;;;;;;;26.51;75.96;97359.86;1680122;84;25796;-79
2022/08/25 09:12:16;;;;;;;25.82;9.60;;;;;;;26.81;75.51;97353.52;1679313;84;25644;-79
2022/08/25 09:15:20;;;;;;;21.93;8.95;;;;;;;27.10;75.38;97350.86;1544374;92;25771;-79
2022/08/25 09:18:03;;;;;;;26.65;9.00;;;;;;;27.38;74.28;97348.69;1547952;92;27567;-79
2022/08/25 09:20:44;;;;;;;23.75;9.35;;;;;;;27.63;73.68;97348.55;1500287;94;25903;-78
2022/08/25 09:23:39;;;;;;;21.62;8.83;;;;;;;27.67;72.52;97343.97;1476748;96;26492;-79
2022/08/25 09:26:19;;;;;;;26.33;9.35;;;;;;;27.83;72.64;97346.53;1480125;95;26526;-80
2022/08/25 09:29:14;;;;;;;23.18;8.95;;;;;;;28.12;72.07;97346.73;1488246;96;25876;-78
2022/08/25 09:31:42;;;;;;;28.55;10.18;;;;;;;28.34;71.68;97341.61;1462513;97;28220;-78
2022/08/25 09:34:19;;;;;;;23.62;9.90;;;;;;;28.46;71.20;97343.14;1447916;98;26172;-79
2022/08/25 09:36:47;;;;;;;27.73;9.35;;;;;;;28.60;70.72;97333.25;1458334;97;25976;-78
2022/08/25 09:39:14;;;;;;;30.32;9.70;;;;;;;28.76;70.63;97332.95;1462447;98;25933;-78
2022/08/25 09:41:52;;;;;;;29.40;9.00;;;;;;;28.97;70.15;97332.53;1462546;98;25820;-79
2022/08/25 09:47:24;;;;;;;29.35;8.65;;;;;;;29.16;68.80;97328.52;1342217;106;25915;-79
2022/08/25 09:50:00;;;;;;;29.82;8.78;;;;;;;29.31;68.62;97330.74;1342359;106;25858;-78
2022/08/25 09:52:39;;;;;;;34.50;8.48;;;;;;;29.44;68.14;97323.35;1341433;105;26653;-78
2022/08/25 09:55:14;;;;;;;34.35;8.85;;;;;;;29.58;67.57;97319.18;1363860;103;25565;-78
2022/08/25 09:57:48;;;;;;;28.83;8.38;;;;;;;29.68;66.75;97313.22;1371618;104;27566;-77
2022/08/25 10:00:35;;;;;;;29.35;7.95;;;;;;;29.79;66.82;97310.04;1383859;101;26069;-78
2022/08/25 10:03:10;;;;;;;30.62;8.65;;;;;;;29.94;66.34;97304.69;1412333;101;25893;-77
2022/08/25 10:05:58;;;;;;;38.20;9.68;;;;;;;30.12;65.94;97307.34;1424125;96;25866;-77
2022/08/25 10:08:40;;;;;;;38.28;9.20;;;;;;;30.15;64.90;97299.14;1478858;94;25942;-76
2022/08/25 10:11:14;;;;;;;27.45;8.60;;;;;;;30.27;64.84;97296.41;1491352;94;27419;-76
2022/08/25 10:13:50;;;;;;;25.35;8.65;;;;;;;30.43;64.37;97293.20;1513431;94;25921;-76
2022/08/25 10:16:27;;;;;;;32.45;8.83;;;;;;;30.53;64.02;97294.80;1494949;94;25844;-76
2022/08/25 10:19:23;;;;;;;33.42;9.75;;;;;;;30.67;63.65;97295.89;1485558;96;25938;-77
2022/08/25 10:22:10;;;;;;;31.82;8.48;;;;;;;30.75;63.08;97297.75;1485816;96;25878;-77
2022/08/25 10:24:40;;;;;;;36.75;8.25;;;;;;;30.85;62.51;97283.95;1486096;95;27431;-78
2022/08/25 10:27:43;;;;;;;23.57;7.62;;;;;;;30.90;62.52;97283.16;1485709;96;25919;-77
2022/08/25 10:30:30;;;;;;;29.82;8.43;;;;;;;31.00;62.20;97284.67;1483250;96;25820;-77
2022/08/25 10:33:11;;;;;;;34.67;7.75;;;;;;;31.11;61.96;97276.93;1485817;96;26374;-77
2022/08/25 10:36:15;;;;;;;22.15;7.83;;;;;;;31.16;61.02;97270.91;1487304;96;26105;-77
2022/08/25 10:38:57;;;;;;;28.35;8.18;;;;;;;31.13;60.91;97274.61;1487362;96;28373;-77
2022/08/25 10:41:34;;;;;;;22.85;7.70;;;;;;;31.20;60.78;97274.59;1500604;95;25594;-77
2022/08/25 10:47:24;;;;;;;26.93;7.53;;;;;;;31.22;59.82;97261.12;1493485;96;25859;-77
2022/08/25 10:49:59;;;;;;;22.80;7.60;;;;;;;31.27;59.79;97260.33;1531014;93;25758;-77
2022/08/25 10:53:11;;;;;;;30.08;6.75;;;;;;;31.36;59.81;97257.41;1535183;93;27422;-76
2022/08/25 10:56:06;;;;;;;34.60;7.85;;;;;;;31.38;59.44;97250.91;1537800;93;33327;-77
2022/08/25 10:58:59;;;;;;;28.20;7.53;;;;;;;31.40;59.42;97247.16;1537648;93;26028;-77
2022/08/25 11:01:46;;;;;;;28.67;6.92;;;;;;;31.39;59.29;97247.77;1537674;93;25719;-77
2022/08/25 11:04:47;;;;;;;28.30;6.25;;;;;;;31.45;59.44;97239.96;1537830;93;25512;-77
2022/08/25 11:07:25;;;;;;;27.62;6.33;;;;;;;31.49;59.20;97239.50;1537681;93;27565;-77
2022/08/25 11:09:59;;;;;;;34.35;7.12;;;;;;;31.46;58.61;97234.03;1538225;93;25619;-77
2022/08/25 11:12:33;;;;;;;26.90;7.17;;;;;;;31.32;58.30;97232.77;1562591;88;25825;-77
2022/08/25 11:15:26;;;;;;;25.05;6.50;;;;;;;31.30;58.49;97229.51;1654937;81;25775;-77
2022/08/25 11:18:01;;;;;;;24.82;6.78;;;;;;;31.33;58.49;97229.63;1756669;80;25771;-77
2022/08/25 11:20:40;;;;;;;20.20;6.80;;;;;;;31.35;58.30;97227.31;1750334;80;27344;-78
2022/08/25 11:23:41;;;;;;;34.10;7.75;;;;;;;31.37;58.45;97226.97;1671027;84;26042;-78
2022/08/25 11:26:14;;;;;;;25.20;7.20;;;;;;;31.30;58.49;97226.72;1689295;84;25747;-76
2022/08/25 11:29:17;;;;;;;32.73;7.55;;;;;;;31.28;58.31;97222.07;1608681;89;25831;-77
2022/08/25 11:31:51;;;;;;;26.90;6.58;;;;;;;31.30;57.43;97219.75;1579407;90;26641;-77
2022/08/25 11:34:18;;;;;;;24.40;7.40;;;;;;;31.25;57.83;97222.80;1573490;90;27391;-77
2022/08/25 11:37:08;;;;;;;34.80;8.20;;;;;;;31.24;57.86;97217.80;1563129;91;25505;-77
2022/08/25 11:40:16;;;;;;;18.87;6.58;;;;;;;31.25;57.93;97211.64;1561150;90;25828;-78
2022/08/25 11:43:08;;;;;;;16.97;5.92;;;;;;;31.26;57.56;97211.87;1558220;90;25758;-77
2022/08/25 11:46:02;;;;;;;30.08;7.42;;;;;;;31.19;57.96;97206.88;1560951;90;25768;-77
2022/08/25 11:48:59;;;;;;;27.13;7.05;;;;;;;31.18;57.43;97207.22;1507110;94;27240;-77
2022/08/25 11:51:46;;;;;;;29.20;7.55;;;;;;;31.01;57.49;97207.68;1507148;94;25576;-77
2022/08/25 11:54:27;;;;;;;25.17;6.75;;;;;;;30.99;57.98;97205.00;1463472;97;25854;-77
2022/08/25 11:57:10;;;;;;;18.62;6.35;;;;;;;31.04;58.29;97206.96;1439726;99;26511;-77
2022/08/25 11:59:55;;;;;;;25.85;7.37;;;;;;;31.08;58.31;97197.33;1461322;97;25841;-77